Terminal Aerodrome Forecast
Issued by NWS Charleston, WV

Current Version | Previous Version | Text Only | Print | Product List | Glossary Off
Versions: 1 2 3 4 5 6 7 8 9 10 11 12 13 14 15 16 17 18 19 20 21 22 23

000
FTUS41 KRLX 220500
TAFBKW
TAF
KBKW 220540Z 2206/2306 14010G18KT P6SM SCT250
     FM220800 14009G18KT P6SM BKN015
     FM220900 13007G18KT P6SM BKN008
     FM221800 13008G20KT 6SM BR OVC010
     FM230000 13013KT P6SM BKN008=

USA.gov is the U.S. government's official web portal to all federal, state and local government web resources and services.